Aviation Digital Data Service (ADDS)

Output produced by METARs form (1808 UTC 06 July 2020)
found at http://aviationweather.gov/metar/data/
 
METAR text: KRNT 061753Z VRB06KT 10SM CLR 18/09 A3007 RMK AO2 SLP186 T01780089 10178 20128 58002
Conditions at: KRNT (RENTON , WA, US) observed 1753 UTC 06 July 2020
Temperature: 17.8°C (64°F)
Dewpoint: 8.9°C (48°F) [RH = 56%]
Pressure (altimeter): 30.07 inches Hg (1018.4 mb)
[Sea-level pressure: 1018.6 mb]
Winds: variable direction winds at 7 MPH (6 knots; 3.1 m/s)
Visibility: 10 or more miles (16+ km)
Ceiling: at least 12,000 feet AGL
Clouds: sky clear below 12,000 feet AGL
Weather: no significant weather observed at this time

METAR text: KRNT 061653Z 17008KT 10SM FEW060 17/09 A3007 RMK AO2 SLP189 T01720089
Conditions at: KRNT (RENTON , WA, US) observed 1653 UTC 06 July 2020
Temperature: 17.2°C (63°F)
Dewpoint: 8.9°C (48°F) [RH = 58%]
Pressure (altimeter): 30.07 inches Hg (1018.4 mb)
[Sea-level pressure: 1018.9 mb]
Winds: from the S (170 degrees) at 9 MPH (8 knots; 4.1 m/s)
Visibility: 10 or more miles (16+ km)
Ceiling: at least 12,000 feet AGL
Clouds: few clouds at 6000 feet AGL
Weather: no significant weather observed at this time